map of BKG home
BKG - Airport
Location
City:  Branson, Missouri, United States
ICAO:KBBG
IATA:BKG
FAA LID:BBG

Details
Type:Airport (Part 139 Class I)
Use:Public/Civil
Latitude:3631'55"N (36.532083)
Longitude:9312'02"W (-93.200543)
Datum:WGS 1984
Elevation:1302 ft (397 m)
Variation:0.81E (WMM2015 magnetic declination)
-0.10 annual change
Runways:1
Longest:7140 × 150 ft (2176 × 45.5 m), paved

Time
Time Zone:UTC-6 (DST-5)
Local Time:

Weather
METAR:KBBG 161949Z 22011G18KT 10SM SCT150 14/M07 A3002
TAF:KBBG 161733Z 1618/1718 22009KT P6SM SKC
FM162300 18007KT P6SM SCT250
FM170600 15006KT 4SM SHRA OVC015
FM171100 14004KT 4SM SHRA OVC008
FM171300 14004KT P6SM OVC008

Related Locations
Nearby:
Farthest:MQZ: 10838 mi / 17443 km
Margaret River [Margaret River Airport], WA, AU

Find:

   beyond  
but within

Other Information
Maps:
NOTAMs:
Links:
Sources:

  
flag of United States
flag of Missouri
  

Airport Diagram

Airport diagram for BKG

Airport diagram PDF

Sectional Chart

Flight Planning
at skyvector.com

Satellite Image

Google Maps Satellite view

 

Copyright © 2004-2017 Karl L. Swartz. All rights reserved.
The Great Circle Mapper name and logo are trademarks of the Great Circle Mapper.
All other trademarks mentioned herein belong to their respective owners.
Please see credits for attibutions and further copyright information.

  Follow gcmap on Facebook Follow gcmap on Twitter Follow gcmap on Google+ GCmap on LinkedIn

hCard Microformat

Geo Microformat